Data for 04/08/2006

Time Sea-Level Adjusted Pressure Absolute Pressure Temperature Relative Humidity Dew Point   
(mb) (inHg) (mb) (inHg) (C) (F) (%) (C) (F)
00:05 1017 30.03 846 24.98 4.8 40.7 83 2.1 35.8
00:10 1016 30 846 24.98 4.7 40.4 83 2.1 35.7
00:15 1016 30 846 24.98 4.7 40.4 82 1.9 35.5
00:20 1016 30 846 24.98 4.7 40.5 83 2 35.6
00:25 1016 30 846 24.98 4.7 40.5 82 2 35.5
00:30 1016 30 845 24.95 4.8 40.7 82 2 35.6
00:35 1016 30 846 24.98 4.7 40.5 82 2 35.5
00:40 1016 30 845 24.95 4.8 40.6 82 2 35.6
00:45 1016 30 845 24.95 4.7 40.4 83 2 35.6
00:50 1016 30 845 24.95 4.6 40.3 82 1.9 35.3
00:55 1016 30 845 24.95 4.7 40.5 82 1.9 35.5
01:00 1016 30 845 24.95 4.8 40.6 81 1.9 35.4
01:05 1016 30 845 24.95 4.8 40.6 81 1.9 35.4
01:10 1016 30 845 24.95 4.7 40.5 82 1.9 35.4
01:15 1016 30 845 24.95 4.7 40.4 82 1.9 35.4
01:20 1016 30 845 24.95 4.6 40.2 83 1.9 35.4
01:25 1016 30 845 24.95 4.5 40.1 83 1.8 35.3
01:30 1016 30 845 24.95 4.5 40.1 83 1.8 35.3
01:35 1016 30 845 24.95 4.5 40.1 82 1.8 35.2
01:40 1016 30 845 24.95 4.5 40.1 83 1.8 35.3
01:45 1016 30 845 24.95 4.5 40 82 1.7 35.1
01:50 1016 30 845 24.95 4.5 40.2 82 1.7 35.1
01:55 1015 29.97 845 24.95 4.6 40.2 82 1.7 35.1
02:00 1016 30 845 24.95 4.6 40.2 82 1.7 35.1
02:05 1016 30 845 24.95 4.5 40 82 1.7 35.1
02:10 1015 29.97 845 24.95 4.4 39.9 82 1.6 34.8
02:15 1015 29.97 845 24.95 4.3 39.8 82 1.6 34.8
02:20 1015 29.97 844 24.92 4.3 39.8 82 1.6 34.8
02:25 1015 29.97 844 24.92 4.4 39.9 82 1.6 34.8
02:30 1015 29.97 844 24.92 4.3 39.7 82 1.5 34.8
02:35 1015 29.97 844 24.92 4.2 39.6 83 1.5 34.7
02:40 1015 29.97 844 24.92 4.2 39.6 82 1.5 34.7
02:45 1015 29.97 844 24.92 4.2 39.5 83 1.5 34.7
02:50 1015 29.97 844 24.92 4.1 39.4 83 1.5 34.6
02:55 1015 29.97 844 24.92 4.1 39.3 83 1.4 34.6
03:00 1015 29.97 844 24.92 4.1 39.4 83 1.4 34.6
03:05 1015 29.97 844 24.92 4.1 39.4 83 1.4 34.6
03:10 1015 29.97 844 24.92 4 39.2 82 1.3 34.3
03:15 1015 29.97 844 24.92 4.2 39.5 82 1.3 34.4
03:20 1015 29.97 844 24.92 4.2 39.5 82 1.4 34.5
03:25 1015 29.97 844 24.92 4.1 39.3 82 1.3 34.3
03:30 1015 29.97 844 24.92 4 39.2 82 1.3 34.3
03:35 1015 29.97 844 24.92 4 39.3 82 1.2 34.2
03:40 1014 29.94 844 24.92 3.9 39 83 1.2 34.1
03:45 1014 29.94 844 24.92 3.7 38.7 83 1.1 34.1
03:50 1014 29.94 844 24.92 3.5 38.4 84 1 33.8
03:55 1014 29.94 844 24.92 3.5 38.2 84 1 33.9
04:00 1014 29.94 844 24.92 3.4 38.1 84 1 33.8
04:05 1014 29.94 843 24.89 3.3 37.9 84 0.9 33.6
04:10 1014 29.94 843 24.89 3.4 38 84 1 33.7
04:15 1014 29.94 843 24.89 3.4 38.2 83 0.9 33.6
04:20 1014 29.94 843 24.89 3.5 38.3 83 0.9 33.6
04:25 1014 29.94 843 24.89 3.5 38.2 84 0.9 33.7
04:30 1014 29.94 843 24.89 3.5 38.2 82 0.7 33.3
04:35 1014 29.94 843 24.89 3.6 38.5 82 0.8 33.4
04:40 1014 29.94 843 24.89 3.8 38.8 81 0.9 33.6
04:45 1014 29.94 843 24.89 3.7 38.7 82 0.9 33.6
04:50 1014 29.94 843 24.89 3.7 38.6 81 0.7 33.2
04:55 1014 29.94 843 24.89 3.7 38.6 82 0.9 33.6
05:00 1014 29.94 843 24.89 3.8 38.8 80 0.7 33.2
05:05 1014 29.94 843 24.89 4.1 39.3 80 0.9 33.5
05:10 1014 29.94 843 24.89 3.9 39 81 0.8 33.5
05:15 1014 29.94 843 24.89 3.6 38.4 82 0.8 33.4
05:20 1014 29.94 843 24.89 3.6 38.5 81 0.7 33.3
05:25 1014 29.94 843 24.89 3.4 38.2 83 0.7 33.3
05:30 1014 29.94 843 24.89 3.6 38.4 81 0.7 33.2
05:35 1014 29.94 843 24.89 3.6 38.5 80 0.5 33
05:40 1014 29.94 843 24.89 3.7 38.7 81 0.7 33.3
05:45 1014 29.94 843 24.89 3.7 38.6 81 0.7 33.2
05:50 1014 29.94 843 24.89 3.7 38.7 81 0.7 33.3
05:55 1014 29.94 843 24.89 3.7 38.7 80 0.7 33.2
06:00 1014 29.94 843 24.89 3.5 38.3 82 0.7 33.2
06:05 1014 29.94 843 24.89 3.5 38.3 80 0.5 32.8
06:10 1014 29.94 843 24.89 3.8 38.9 80 0.7 33.3
06:15 1014 29.94 843 24.89 3.7 38.6 81 0.7 33.2
06:20 1014 29.94 843 24.89 3.7 38.6 80 0.6 33.1
06:25 1014 29.94 843 24.89 3.7 38.6 80 0.6 33
06:30 1014 29.94 843 24.89 3.8 38.8 80 0.6 33.1
06:35 1014 29.94 843 24.89 3.8 38.8 80 0.6 33.1
06:40 1014 29.94 843 24.89 3.8 38.9 79 0.6 33.1
06:45 1014 29.94 843 24.89 3.9 38.9 79 0.5 33
06:50 1014 29.94 843 24.89 3.8 38.8 79 0.5 33
06:55 1014 29.94 843 24.89 3.8 38.8 79 0.4 32.7
07:00 1014 29.94 843 24.89 3.9 39.1 78 0.5 32.9
07:05 1014 29.94 843 24.89 3.8 38.9 78 0.4 32.8
07:10 1014 29.94 843 24.89 4.1 39.4 77 0.5 32.9
07:15 1014 29.94 844 24.92 4.4 40 76 0.6 33.1
07:20 1014 29.94 843 24.89 4.3 39.7 78 0.7 33.3
07:25 1014 29.94 843 24.89 3.8 38.8 80 0.6 33.1
07:30 1014 29.94 843 24.89 3.6 38.6 80 0.5 32.9
07:35 1014 29.94 844 24.92 3.6 38.6 80 0.5 32.9
07:40 1014 29.94 844 24.92 3.7 38.7 80 0.6 33.1
07:45 1015 29.97 844 24.92 3.9 39 79 0.6 33
07:50 1014 29.94 844 24.92 3.9 39 79 0.5 32.9
07:55 1014 29.94 844 24.92 3.8 38.9 79 0.5 32.9
08:00 1014 29.94 843 24.89 3.9 39 79 0.6 33
08:05 1014 29.94 844 24.92 3.9 39.1 79 0.6 33
08:10 1014 29.94 844 24.92 4.3 39.7 77 0.5 32.9
08:15 1014 29.94 844 24.92 4.6 40.4 75 0.7 33.2
08:20 1014 29.94 843 24.89 4.8 40.7 76 1 33.7
08:25 1014 29.94 843 24.89 4.9 40.8 74 0.7 33.3
08:30 1014 29.94 843 24.89 5.1 41.3 72 0.6 33.1
08:35 1014 29.94 844 24.92 5.1 41.2 72 0.5 32.9
08:40 1014 29.94 844 24.92 5.4 41.7 71 0.7 33.2
08:45 1014 29.94 844 24.92 5.5 42 71 0.6 33.2
08:50 1014 29.94 843 24.89 5.5 42 71 0.8 33.4
08:55 1014 29.94 843 24.89 5.8 42.4 70 0.7 33.3
09:00 1014 29.94 843 24.89 6 42.8 69 0.7 33.3
09:05 1014 29.94 843 24.89 6.6 44 65 0.5 32.8
09:10 1014 29.94 843 24.89 7.3 45.1 65 1.1 34
09:15 1014 29.94 843 24.89 7.6 45.8 65 1.6 34.8
09:20 1014 29.94 843 24.89 8.4 47 62 1.5 34.7
09:25 1014 29.94 843 24.89 8.5 47.4 63 2 35.5
09:30 1014 29.94 843 24.89 8.3 46.9 64 1.9 35.5
09:35 1014 29.94 843 24.89 8.3 46.9 65 2.1 35.8
09:40 1014 29.94 843 24.89 8.4 47.1 63 1.8 35.2
09:45 1014 29.94 843 24.89 8.8 47.8 62 2 35.6
09:50 1014 29.94 843 24.89 9.9 49.9 60 2.5 36.6
09:55 1014 29.94 843 24.89 10.6 51 57 2.3 36.2
10:00 1014 29.94 843 24.89 10.5 50.9 57 2.4 36.3
10:05 1014 29.94 843 24.89 10.6 51.2 56 2.3 36.2
10:10 1014 29.94 843 24.89 10.6 51.1 59 3.1 37.5
10:15 1014 29.94 843 24.89 10.2 50.4 56 2 35.6
10:20 1014 29.94 843 24.89 9.9 49.8 57 1.9 35.4
10:25 1014 29.94 843 24.89 10 49.9 62 3.1 37.5
10:30 1014 29.94 843 24.89 10.1 50.1 61 3 37.4
10:35 1014 29.94 843 24.89 11.1 51.9 58 3.1 37.6
10:40 1014 29.94 843 24.89 11.4 52.6 57 3.3 37.9
10:45 1014 29.94 843 24.89 11.4 52.5 55 2.8 37
10:50 1014 29.94 843 24.89 11.9 53.4 53 2.7 36.8
10:55 1014 29.94 843 24.89 12 53.5 52 2.4 36.4
11:00 1014 29.94 843 24.89 12.7 54.8 49 2.3 36.2
11:05 1014 29.94 843 24.89 13 55.3 48 2.2 36
11:10 1014 29.94 843 24.89 13.2 55.8 48 2.5 36.5
11:15 1014 29.94 843 24.89 12.9 55.3 50 2.8 37
11:20 1014 29.94 843 24.89 12.1 53.7 53 2.9 37.2
11:25 1014 29.94 843 24.89 12.4 54.3 51 2.7 36.9
11:30 1014 29.94 843 24.89 13.4 56.2 43 1.2 34.2
11:35 1014 29.94 843 24.89 13.6 56.4 42 1 33.9
11:40 1014 29.94 843 24.89 13.3 55.9 45 1.7 35
11:45 1014 29.94 843 24.89 12.9 55.2 46 1.7 35.1
11:50 1014 29.94 843 24.89 12.8 55.1 46 1.6 35
11:55 1014 29.94 843 24.89 13.1 55.5 46 1.7 35
12:00 1014 29.94 843 24.89 13.3 55.9 44 1.5 34.7
12:05 1014 29.94 843 24.89 14 57.1 41 0.9 33.6
12:10 1014 29.94 843 24.89 14.1 57.4 39 0.5 33
12:15 1014 29.94 843 24.89 14.5 58.1 37 0.2 32.4
12:20 1014 29.94 843 24.89 14.8 58.7 36 -0.1 31.9
12:25 1014 29.94 843 24.89 15 59.1 36 0.3 32.5
12:30 1014 29.94 843 24.89 15.5 59.8 35 -0 32
12:35 1014 29.94 843 24.89 15.4 59.7 36 0.4 32.7
12:40 1014 29.94 843 24.89 15.6 60 33 -0.5 31
12:45 1014 29.94 843 24.89 14.8 58.6 35 -0.2 31.6
12:50 1014 29.94 843 24.89 15.3 59.5 34 -0.2 31.7
12:55 1014 29.94 843 24.89 16.2 61.2 32 -0.2 31.7
13:00 1013 29.91 843 24.89 16.3 61.4 32 -0.1 31.7
13:05 1014 29.94 843 24.89 16.4 61.4 33 0.2 32.3
13:10 1013 29.91 843 24.89 16 60.8 32 -0.6 31
13:15 1013 29.91 843 24.89 15.8 60.4 32 -0.7 30.8
13:20 1013 29.91 843 24.89 15.8 60.4 32 -0.8 30.6
13:25 1013 29.91 843 24.89 16.3 61.4 30 -1.1 30
13:30 1013 29.91 843 24.89 16.4 61.5 33 -0 32
13:35 1013 29.91 843 24.89 15.1 59.1 34 -0.4 31.3
13:40 1013 29.91 843 24.89 14.6 58.3 35 -0.5 31.2
13:45 1013 29.91 843 24.89 15.1 59.1 34 -0.7 30.7
13:50 1013 29.91 842 24.86 14.8 58.7 34 -0.7 30.8
13:55 1013 29.91 842 24.86 14.9 58.7 33 -1.1 30
14:00 1013 29.91 842 24.86 14.9 58.8 34 -0.9 30.5
14:05 1013 29.91 842 24.86 15.2 59.4 33 -0.8 30.6
14:10 1013 29.91 842 24.86 15.3 59.6 34 -0.3 31.4
14:15 1013 29.91 842 24.86 15.8 60.4 32 -0.7 30.7
14:20 1013 29.91 842 24.86 15.4 59.7 31 -1.5 29.3
14:25 1013 29.91 842 24.86 15.2 59.3 32 -1.3 29.6
14:30 1013 29.91 842 24.86 15.1 59.2 32 -1.2 29.8
14:35 1013 29.91 842 24.86 15.8 60.4 25 -4.1 24.6
14:40 1013 29.91 842 24.86 15.5 59.8 35 0.3 32.6
14:45 1013 29.91 842 24.86 14.4 57.8 38 0.1 32.3
14:50 1013 29.91 842 24.86 14.1 57.5 39 0.5 33
14:55 1013 29.91 842 24.86 13.8 56.8 39 0 32.1
15:00 1013 29.91 842 24.86 14.4 57.9 37 -0.1 31.8
15:05 1013 29.91 842 24.86 15.4 59.7 34 -0.3 31.4
15:10 1013 29.91 842 24.86 16 60.8 33 -0.3 31.4
15:15 1013 29.91 842 24.86 16.1 61 31 -0.8 30.6
15:20 1013 29.91 842 24.86 16.5 61.8 29 -1.3 29.6
15:25 1013 29.91 842 24.86 16.9 62.4 29 -0.9 30.3
15:30 1013 29.91 842 24.86 16.4 61.6 30 -1.1 30
15:35 1012 29.88 842 24.86 16.1 61 30 -1.5 29.3
15:40 1012 29.88 842 24.86 15.5 59.9 24 -5 23.1
15:45 1012 29.88 842 24.86 16 60.8 22 -5.8 21.6
15:50 1012 29.88 841 24.83 16.4 61.6 21 -5.9 21.4
15:55 1012 29.88 841 24.83 15.9 60.6 23 -5.4 22.3
16:00 1012 29.88 841 24.83 15.9 60.7 21 -6.1 21
16:05 1012 29.88 841 24.83 15.8 60.5 22 -5.9 21.4
16:10 1012 29.88 841 24.83 15.8 60.4 21 -6.1 20.9
16:15 1012 29.88 841 24.83 15.4 59.6 22 -6 21.2
16:20 1012 29.88 841 24.83 15.3 59.5 25 -4.5 23.9
16:25 1012 29.88 841 24.83 15.2 59.3 24 -5.3 22.4
16:30 1012 29.88 841 24.83 15.6 60 22 -5.8 21.6
16:35 1012 29.88 841 24.83 15.6 60.1 23 -5.4 22.3
16:40 1012 29.88 841 24.83 15.8 60.4 22 -5.7 21.7
16:45 1012 29.88 842 24.86 16.3 61.3 22 -5.4 22.2
16:50 1013 29.91 842 24.86 16.1 61 23 -5.2 22.6
16:55 1013 29.91 842 24.86 14.1 57.4 51 4.2 39.6
17:00 1013 29.91 842 24.86 11.7 53.1 56 3.4 38
17:05 1013 29.91 842 24.86 11.1 52 58 3.3 37.9
17:10 1013 29.91 843 24.89 10.7 51.3 60 3.4 38.1
17:15 1013 29.91 843 24.89 10.3 50.5 66 4.1 39.5
17:20 1014 29.94 843 24.89 9.4 48.8 68 3.7 38.7
17:25 1014 29.94 843 24.89 9.2 48.6 67 3.4 38.2
17:30 1014 29.94 843 24.89 9.3 48.8 65 3.1 37.5
17:35 1013 29.91 843 24.89 9.5 49.1 63 2.8 37
17:40 1013 29.91 843 24.89 9.9 49.8 61 2.7 36.9
17:45 1013 29.91 843 24.89 10.3 50.5 59 2.6 36.6
17:50 1013 29.91 843 24.89 10.4 50.7 58 2.5 36.4
17:55 1013 29.91 843 24.89 10.6 51.2 56 2.3 36.1
18:00 1014 29.94 843 24.89 10.6 51.1 56 2.3 36.2
18:05 1014 29.94 843 24.89 10.9 51.6 55 2.3 36.2
18:10 1014 29.94 843 24.89 10.9 51.7 56 2.4 36.4
18:15 1014 29.94 843 24.89 10.5 51 56 2.2 36
18:20 1014 29.94 843 24.89 10.7 51.2 56 2.3 36.1
18:25 1014 29.94 843 24.89 10.8 51.4 56 2.4 36.3
18:30 1014 29.94 843 24.89 10.9 51.5 55 2.2 36
18:35 1014 29.94 843 24.89 10.8 51.4 56 2.5 36.5
18:40 1014 29.94 843 24.89 10.7 51.2 56 2.2 36
18:45 1014 29.94 843 24.89 10.8 51.4 56 2.4 36.4
18:50 1014 29.94 843 24.89 10.8 51.4 57 2.6 36.7
18:55 1014 29.94 843 24.89 10.5 50.9 59 2.8 37.1
19:00 1014 29.94 843 24.89 10.1 50.3 62 3.1 37.7
19:05 1014 29.94 843 24.89 10.4 50.7 60 3 37.4
19:10 1014 29.94 843 24.89 10.5 50.9 60 3.1 37.6
19:15 1014 29.94 843 24.89 10.6 51.1 60 3.2 37.7
19:20 1014 29.94 843 24.89 10.5 51 59 3 37.3
19:25 1014 29.94 843 24.89 10.4 50.8 60 2.9 37.3
19:30 1014 29.94 843 24.89 10.3 50.6 60 2.9 37.3
19:35 1014 29.94 843 24.89 10.3 50.5 61 3 37.4
19:40 1014 29.94 843 24.89 10.3 50.5 59 2.8 37
19:45 1014 29.94 843 24.89 10.2 50.3 59 2.6 36.7
19:50 1014 29.94 843 24.89 10.2 50.3 60 2.8 37
19:55 1014 29.94 843 24.89 10 49.9 61 2.8 37.1
20:00 1014 29.94 843 24.89 9.7 49.5 62 2.9 37.2
20:05 1014 29.94 843 24.89 9.6 49.3 62 2.8 37
20:10 1014 29.94 843 24.89 9.6 49.3 62 2.7 36.9
20:15 1014 29.94 843 24.89 9.6 49.2 62 2.7 36.9
20:20 1014 29.94 843 24.89 9.4 48.8 64 3 37.5
20:25 1014 29.94 843 24.89 8.8 47.9 68 3.2 37.8
20:30 1014 29.94 843 24.89 8.6 47.4 68 3 37.4
20:35 1014 29.94 843 24.89 8.5 47.3 68 3 37.4
20:40 1014 29.94 843 24.89 8.4 47.2 68 3 37.4
20:45 1014 29.94 843 24.89 8.3 46.9 69 2.9 37.2
20:50 1014 29.94 843 24.89 8.2 46.8 69 2.9 37.2
20:55 1014 29.94 843 24.89 8.3 47 68 2.8 37.1
21:00 1014 29.94 843 24.89 8.5 47.2 67 2.7 36.9
21:05 1014 29.94 844 24.92 8.5 47.3 66 2.6 36.7
21:10 1014 29.94 844 24.92 8.6 47.6 66 2.7 36.9
21:15 1014 29.94 844 24.92 8.7 47.6 66 2.7 36.8
21:20 1014 29.94 844 24.92 8.7 47.6 66 2.8 37
21:25 1015 29.97 844 24.92 8.5 47.3 67 2.7 36.9
21:30 1015 29.97 844 24.92 8.5 47.2 67 2.6 36.7
21:35 1015 29.97 844 24.92 8.7 47.7 65 2.6 36.7
21:40 1015 29.97 844 24.92 8.8 47.9 65 2.6 36.7
21:45 1015 29.97 844 24.92 8.8 47.9 65 2.6 36.7
21:50 1015 29.97 844 24.92 8.9 47.9 65 2.7 36.8
21:55 1015 29.97 844 24.92 8.9 47.9 64 2.5 36.6
22:00 1015 29.97 844 24.92 8.8 47.8 65 2.6 36.6
22:05 1015 29.97 844 24.92 8.9 47.9 65 2.8 37
22:10 1015 29.97 844 24.92 8.8 47.8 66 2.9 37.2
22:15 1015 29.97 844 24.92 8.6 47.5 68 3 37.4
22:20 1015 29.97 844 24.92 8.6 47.4 68 3.1 37.6
22:25 1015 29.97 844 24.92 8.5 47.3 69 3.2 37.8
22:30 1015 29.97 844 24.92 8.3 47 71 3.3 38
22:35 1015 29.97 844 24.92 8.2 46.7 71 3.2 37.8
22:40 1015 29.97 844 24.92 8.2 46.8 71 3.3 37.9
22:45 1015 29.97 844 24.92 8.2 46.8 70 3 37.4
22:50 1015 29.97 844 24.92 8.2 46.7 69 2.8 37.1
22:55 1015 29.97 844 24.92 8.1 46.5 69 2.7 36.9
23:00 1015 29.97 844 24.92 8 46.5 68 2.5 36.4
23:05 1015 29.97 844 24.92 8 46.4 68 2.5 36.4
23:10 1015 29.97 844 24.92 8 46.5 68 2.4 36.4
23:15 1015 29.97 844 24.92 7.9 46.2 68 2.3 36.1
23:20 1015 29.97 844 24.92 7.7 45.9 68 2.2 36
23:25 1015 29.97 844 24.92 7.7 45.8 68 2.2 35.9
23:30 1015 29.97 844 24.92 7.6 45.8 68 2.2 35.9
23:35 1015 29.97 844 24.92 7.5 45.5 70 2.3 36.2
23:40 1015 29.97 844 24.92 7.2 45 71 2.3 36.1
23:45 1015 29.97 844 24.92 7.2 45 72 2.5 36.5
23:50 1015 29.97 844 24.92 7 44.7 72 2.4 36.4
23:55 1015 29.97 844 24.92 7.1 44.8 71 2.3 36.1
24:00 1015 29.97 844 24.92 7.1 44.8 72 2.4 36.3